createdAt,value
2018-12-19T00:00:49.189Z,2.98
2018-12-19T00:01:49.159Z,3.04
2018-12-19T00:02:49.123Z,3.02
2018-12-19T00:03:49.087Z,2.99
2018-12-19T00:04:49.068Z,3.01
2018-12-19T00:05:49.024Z,2.99
2018-12-19T00:06:48.986Z,2.94
2018-12-19T00:07:48.955Z,2.99
2018-12-19T00:08:48.916Z,3.01
2018-12-19T00:09:48.888Z,2.98
2018-12-19T00:10:48.853Z,2.92
2018-12-19T00:11:48.833Z,2.92
2018-12-19T00:12:48.779Z,3.02
2018-12-19T00:13:48.745Z,3.02
2018-12-19T00:14:48.711Z,2.98
2018-12-19T00:15:48.679Z,3.10
2018-12-19T00:16:48.643Z,2.99
2018-12-19T00:17:48.611Z,2.99
2018-12-19T00:18:48.576Z,2.95
2018-12-19T00:19:48.546Z,2.97
2018-12-19T00:20:48.513Z,2.98
2018-12-19T00:21:48.473Z,3.01
2018-12-19T00:22:48.487Z,2.97
2018-12-19T00:23:48.404Z,2.97
2018-12-19T00:24:48.383Z,2.94
2018-12-19T00:25:48.338Z,2.98
2018-12-19T00:26:48.302Z,2.97
2018-12-19T00:27:48.276Z,2.92
2018-12-19T00:28:48.233Z,2.94
2018-12-19T00:29:48.264Z,2.95
2018-12-19T00:30:48.164Z,2.95
2018-12-19T00:31:48.131Z,2.94
2018-12-19T00:32:48.094Z,2.95
2018-12-19T00:33:48.062Z,2.90
2018-12-19T00:34:48.178Z,2.99
2018-12-19T00:35:47.994Z,2.94
2018-12-19T00:36:47.960Z,2.84
2018-12-19T00:37:47.928Z,2.81
2018-12-19T00:38:47.891Z,2.83
2018-12-19T00:39:47.855Z,2.81
2018-12-19T00:40:47.821Z,2.71
2018-12-19T00:41:47.820Z,2.83
2018-12-19T00:42:47.758Z,2.73
2018-12-19T00:43:47.722Z,2.81
2018-12-19T00:44:47.684Z,2.81
2018-12-19T00:45:47.652Z,2.80
2018-12-19T00:46:47.618Z,2.77
2018-12-19T00:47:47.586Z,2.69
2018-12-19T00:48:47.547Z,2.69
2018-12-19T00:49:47.517Z,2.71
2018-12-19T00:50:47.479Z,2.68
2018-12-19T00:51:47.453Z,2.69
2018-12-19T00:52:47.410Z,2.71
2018-12-19T00:53:47.375Z,2.66
2018-12-19T00:54:47.341Z,2.71
2018-12-19T00:55:47.313Z,2.71
2018-12-19T00:56:47.273Z,2.71
2018-12-19T00:57:47.238Z,2.68
2018-12-19T00:58:47.362Z,2.77
2018-12-19T00:59:47.170Z,2.65
2018-12-19T01:00:47.139Z,2.77
2018-12-19T01:01:47.101Z,2.69
2018-12-19T01:02:47.071Z,2.63
2018-12-19T01:03:47.032Z,2.68
2018-12-19T01:04:48.175Z,2.68
2018-12-19T01:05:46.964Z,2.71
2018-12-19T01:06:46.928Z,2.69
2018-12-19T01:07:46.896Z,2.65
2018-12-19T01:08:46.859Z,2.80
2018-12-19T01:09:46.989Z,2.73
2018-12-19T01:10:46.794Z,2.73
2018-12-19T01:11:46.757Z,2.74
2018-12-19T01:12:46.725Z,2.69
2018-12-19T01:13:46.688Z,2.74
2018-12-19T01:14:46.656Z,2.68
2018-12-19T01:15:46.620Z,2.66
2018-12-19T01:16:46.586Z,2.74
2018-12-19T01:17:46.551Z,2.68
2018-12-19T01:18:46.571Z,2.71
2018-12-19T01:19:46.482Z,2.69
2018-12-19T01:20:46.448Z,2.81
2018-12-19T01:21:46.413Z,2.73
2018-12-19T01:22:46.379Z,2.62
2018-12-19T01:23:46.346Z,2.68
2018-12-19T01:24:46.327Z,2.69
2018-12-19T01:25:46.276Z,2.68
2018-12-19T01:26:46.243Z,2.63
2018-12-19T01:27:46.207Z,2.69
2018-12-19T01:28:46.174Z,2.63
2018-12-19T01:29:46.142Z,2.61
2018-12-19T01:30:46.110Z,2.66
2018-12-19T01:31:46.071Z,2.69
2018-12-19T01:32:46.035Z,2.63
2018-12-19T01:33:46.001Z,2.68
2018-12-19T01:34:45.974Z,2.69
2018-12-19T01:35:45.932Z,2.59
2018-12-19T01:36:45.898Z,2.61
2018-12-19T01:37:45.863Z,2.58
2018-12-19T01:38:45.828Z,2.55
2018-12-19T01:39:45.795Z,2.56
2018-12-19T01:40:45.760Z,2.68
2018-12-19T01:41:45.726Z,2.66
2018-12-19T01:42:45.692Z,2.58
2018-12-19T01:43:45.658Z,2.56
2018-12-19T01:44:45.622Z,2.63
2018-12-19T01:45:45.587Z,2.51
2018-12-19T01:46:45.565Z,2.50
2018-12-19T01:47:45.521Z,2.63
2018-12-19T01:48:45.492Z,2.58
2018-12-19T01:49:45.450Z,2.63
2018-12-19T01:50:45.415Z,2.51
2018-12-19T01:51:45.383Z,2.58
2018-12-19T01:52:45.348Z,2.58
2018-12-19T01:53:45.312Z,2.68
2018-12-19T01:54:45.278Z,2.56
2018-12-19T01:55:45.246Z,2.55
2018-12-19T01:56:45.209Z,2.56
2018-12-19T01:57:45.178Z,2.56
2018-12-19T01:58:45.148Z,2.58
2018-12-19T01:59:45.107Z,2.63
2018-12-19T02:00:45.071Z,2.68
2018-12-19T02:01:45.041Z,2.66
2018-12-19T02:02:45.004Z,2.69
2018-12-19T02:03:44.971Z,2.74
2018-12-19T02:04:44.936Z,2.71
2018-12-19T02:05:44.910Z,2.73
2018-12-19T02:06:44.866Z,2.74
2018-12-19T02:07:44.835Z,2.62
2018-12-19T02:08:44.798Z,2.76
2018-12-19T02:09:44.762Z,2.66
2018-12-19T02:10:44.729Z,2.71
2018-12-19T02:11:44.699Z,2.73
2018-12-19T02:12:44.661Z,2.69
2018-12-19T02:13:44.625Z,2.66
2018-12-19T02:14:44.592Z,2.66
2018-12-19T02:15:44.558Z,2.68
2018-12-19T02:16:44.521Z,2.66
2018-12-19T02:17:44.489Z,2.71
2018-12-19T02:18:44.456Z,2.71
2018-12-19T02:19:44.420Z,2.69
2018-12-19T02:20:44.385Z,2.74
2018-12-19T02:21:44.358Z,2.69
2018-12-19T02:22:44.319Z,2.77
2018-12-19T02:23:44.283Z,2.68
2018-12-19T02:24:44.250Z,2.66
2018-12-19T02:25:44.239Z,2.66
2018-12-19T02:26:44.181Z,2.74
2018-12-19T02:27:44.145Z,2.65
2018-12-19T02:28:44.114Z,2.62
2018-12-19T02:29:44.077Z,2.69
2018-12-19T02:30:44.043Z,2.68
2018-12-19T02:31:44.013Z,2.71
2018-12-19T02:32:44.009Z,2.74
2018-12-19T02:33:43.941Z,2.71
2018-12-19T02:34:43.914Z,2.69
2018-12-19T02:35:43.872Z,2.66
2018-12-19T02:36:43.837Z,2.73
2018-12-19T02:37:43.803Z,2.71
2018-12-19T02:38:43.768Z,2.68
2018-12-19T02:39:43.750Z,2.65
2018-12-19T02:40:43.702Z,2.69
2018-12-19T02:41:43.672Z,2.71
2018-12-19T02:42:43.634Z,2.69
2018-12-19T02:43:43.606Z,2.69
2018-12-19T02:44:43.563Z,2.68
2018-12-19T02:45:43.529Z,2.71
2018-12-19T02:46:43.508Z,2.68
2018-12-19T02:47:43.461Z,2.68
2018-12-19T02:48:43.430Z,2.71
2018-12-19T02:49:43.393Z,2.76
2018-12-19T02:50:43.359Z,2.71
2018-12-19T02:51:43.329Z,2.74
2018-12-19T02:52:43.327Z,2.69
2018-12-19T02:53:43.270Z,2.83
2018-12-19T02:54:43.224Z,2.66
2018-12-19T02:55:43.193Z,2.83
2018-12-19T02:56:43.153Z,2.86
2018-12-19T02:57:43.119Z,2.83
2018-12-19T02:58:43.092Z,2.79
2018-12-19T02:59:43.050Z,2.80
2018-12-19T03:00:43.167Z,2.83
2018-12-19T03:01:42.981Z,2.69
2018-12-19T03:02:42.948Z,2.83
2018-12-19T03:03:42.924Z,2.86
2018-12-19T03:04:42.914Z,2.81
2018-12-19T03:05:42.869Z,2.69
2018-12-19T03:06:42.823Z,2.76
2018-12-19T03:07:42.777Z,2.73
2018-12-19T03:08:42.742Z,2.71
2018-12-19T03:09:43.130Z,2.73
2018-12-19T03:10:42.674Z,2.69
2018-12-19T03:11:42.643Z,2.80
2018-12-19T03:12:42.619Z,2.74
2018-12-19T03:13:42.572Z,2.73
2018-12-19T03:14:42.537Z,2.69
2018-12-19T03:15:42.504Z,2.73
2018-12-19T03:16:42.469Z,2.76
2018-12-19T03:17:42.436Z,2.76
2018-12-19T03:18:42.409Z,2.71
2018-12-19T03:19:42.367Z,2.66
2018-12-19T03:20:42.334Z,2.71
2018-12-19T03:21:42.299Z,2.77
2018-12-19T03:22:42.275Z,2.77
2018-12-19T03:23:42.234Z,2.68
2018-12-19T03:24:42.197Z,2.65
2018-12-19T03:25:42.162Z,2.69
2018-12-19T03:26:42.132Z,2.71
2018-12-19T03:27:42.095Z,2.69
2018-12-19T03:28:42.061Z,2.68
2018-12-19T03:29:42.057Z,2.71
2018-12-19T03:30:41.991Z,2.69
2018-12-19T03:31:41.959Z,2.68
2018-12-19T03:32:41.925Z,2.71
2018-12-19T03:33:41.898Z,2.71
2018-12-19T03:34:41.855Z,2.62
2018-12-19T03:35:41.820Z,2.66
2018-12-19T03:36:41.788Z,2.74
2018-12-19T03:37:41.753Z,2.58
2018-12-19T03:38:41.716Z,2.65
2018-12-19T03:39:41.684Z,2.73
2018-12-19T03:40:41.649Z,2.61
2018-12-19T03:41:41.616Z,2.71
2018-12-19T03:42:41.582Z,2.73
2018-12-19T03:43:41.546Z,2.58
2018-12-19T03:44:41.514Z,2.71
2018-12-19T03:45:41.478Z,2.68
2018-12-19T03:46:41.460Z,2.65
2018-12-19T03:47:41.411Z,2.58
2018-12-19T03:48:41.376Z,2.58
2018-12-19T03:49:41.341Z,2.62
2018-12-19T03:50:41.309Z,2.56
2018-12-19T03:51:41.272Z,2.53
2018-12-19T03:52:41.246Z,2.56
2018-12-19T03:53:41.206Z,2.61
2018-12-19T03:54:41.170Z,2.51
2018-12-19T03:55:41.144Z,2.63
2018-12-19T03:56:41.104Z,2.55
2018-12-19T03:57:41.068Z,2.62
2018-12-19T03:58:41.062Z,2.51
2018-12-19T03:59:41.370Z,2.65
2018-12-19T04:00:41.119Z,2.63
2018-12-19T04:01:40.933Z,2.63
2018-12-19T04:02:40.897Z,2.68
2018-12-19T04:03:40.867Z,2.65
2018-12-19T04:04:40.828Z,2.63
2018-12-19T04:05:40.797Z,2.58
2018-12-19T04:06:40.762Z,2.58
2018-12-19T04:07:40.730Z,2.56
2018-12-19T04:08:40.692Z,2.53
2018-12-19T04:09:40.663Z,2.62
2018-12-19T04:10:40.632Z,2.65
2018-12-19T04:11:40.596Z,2.59
2018-12-19T04:12:40.558Z,2.53
2018-12-19T04:13:40.523Z,2.69
2018-12-19T04:14:40.488Z,2.61
2018-12-19T04:15:40.455Z,2.63
2018-12-19T04:16:40.419Z,2.62
2018-12-19T04:17:40.386Z,2.56
2018-12-19T04:18:40.354Z,2.58
2018-12-19T04:19:40.318Z,2.56
2018-12-19T04:20:40.288Z,2.58
2018-12-19T04:21:40.253Z,2.63
2018-12-19T04:22:40.216Z,2.55
2018-12-19T04:23:40.195Z,2.68
2018-12-19T04:24:40.149Z,2.56
2018-12-19T04:25:40.116Z,2.56
2018-12-19T04:26:40.082Z,2.59
2018-12-19T04:27:40.046Z,2.63
2018-12-19T04:28:40.013Z,2.58
2018-12-19T04:29:39.976Z,2.56
2018-12-19T04:30:40.093Z,2.62
2018-12-19T04:31:39.910Z,2.59
2018-12-19T04:32:39.875Z,2.59
2018-12-19T04:33:39.857Z,2.55
2018-12-19T04:34:39.807Z,2.62
2018-12-19T04:35:39.779Z,2.55
2018-12-19T04:36:39.739Z,2.58
2018-12-19T04:37:39.712Z,2.65
2018-12-19T04:38:39.669Z,2.66
2018-12-19T04:39:39.643Z,2.51
2018-12-19T04:40:39.600Z,2.51
2018-12-19T04:41:39.569Z,2.56
2018-12-19T04:42:39.567Z,2.61
2018-12-19T04:43:39.502Z,2.66
2018-12-19T04:44:39.465Z,2.68
2018-12-19T04:45:39.434Z,2.62
2018-12-19T04:46:39.397Z,2.62
2018-12-19T04:47:39.363Z,2.62
2018-12-19T04:48:39.327Z,2.62
2018-12-19T04:49:39.294Z,2.65
2018-12-19T04:50:39.261Z,2.62
2018-12-19T04:51:39.227Z,2.66
2018-12-19T04:52:39.192Z,2.55
2018-12-19T04:53:39.158Z,2.56
2018-12-19T04:54:39.138Z,2.58
2018-12-19T04:55:39.092Z,2.65
2018-12-19T04:56:39.057Z,2.55
2018-12-19T04:57:39.021Z,2.59
2018-12-19T04:58:38.988Z,2.55
2018-12-19T04:59:38.954Z,2.68
2018-12-19T05:00:38.929Z,2.66
2018-12-19T05:01:38.885Z,2.71
2018-12-19T05:02:38.850Z,2.66
2018-12-19T05:03:38.825Z,2.69
2018-12-19T05:04:38.781Z,2.68
2018-12-19T05:05:38.750Z,2.66
2018-12-19T05:06:38.719Z,2.68
2018-12-19T05:07:38.690Z,2.68
2018-12-19T05:08:38.647Z,2.68
2018-12-19T05:09:38.611Z,2.65
2018-12-19T05:10:38.586Z,2.69
2018-12-19T05:11:38.546Z,2.65
2018-12-19T05:12:38.516Z,2.71
2018-12-19T05:13:38.481Z,2.66
2018-12-19T05:14:38.441Z,2.76
2018-12-19T05:15:38.410Z,2.69
2018-12-19T05:16:38.372Z,2.80
2018-12-19T05:17:38.340Z,2.73
2018-12-19T05:18:38.306Z,2.69
2018-12-19T05:19:38.272Z,2.74
2018-12-19T05:20:38.242Z,2.66
2018-12-19T05:21:38.202Z,2.86
2018-12-19T05:22:38.170Z,2.81
2018-12-19T05:23:38.135Z,2.79
2018-12-19T05:24:38.100Z,2.84
2018-12-19T05:25:38.068Z,2.71
2018-12-19T05:26:38.037Z,2.69
2018-12-19T05:27:37.998Z,2.84
2018-12-19T05:28:37.965Z,2.83
2018-12-19T05:29:37.931Z,2.80
2018-12-19T05:30:37.896Z,2.80
2018-12-19T05:31:37.867Z,2.84
2018-12-19T05:32:37.827Z,2.79
2018-12-19T05:33:37.795Z,2.81
2018-12-19T05:34:37.762Z,2.77
2018-12-19T05:35:37.726Z,2.81
2018-12-19T05:36:37.695Z,2.87
2018-12-19T05:37:37.660Z,2.95
2018-12-19T05:38:37.625Z,2.81
2018-12-19T05:39:37.593Z,2.92
2018-12-19T05:40:37.555Z,2.98
2018-12-19T05:41:37.522Z,2.94
2018-12-19T05:42:37.491Z,2.92
2018-12-19T05:43:37.454Z,2.97
2018-12-19T05:44:37.420Z,2.94
2018-12-19T05:45:37.386Z,2.94
2018-12-19T05:46:37.352Z,2.98
2018-12-19T05:47:37.323Z,2.95
2018-12-19T05:48:37.287Z,2.95
2018-12-19T05:49:37.252Z,2.98
2018-12-19T05:50:37.217Z,2.97
2018-12-19T05:51:37.190Z,3.02
2018-12-19T05:52:37.150Z,3.05
2018-12-19T05:53:37.114Z,2.97
2018-12-19T05:54:37.082Z,2.98
2018-12-19T05:55:37.048Z,3.07
2018-12-19T05:56:37.021Z,2.97
2018-12-19T05:57:36.985Z,3.04
2018-12-19T05:58:36.947Z,3.01
2018-12-19T05:59:36.912Z,2.95
2018-12-19T06:00:36.879Z,2.97
2018-12-19T06:01:36.847Z,2.98
2018-12-19T06:02:36.810Z,2.94
2018-12-19T06:03:36.777Z,3.02
2018-12-19T06:04:36.767Z,3.02
2018-12-19T06:05:36.712Z,3.04
2018-12-19T06:06:36.676Z,2.97
2018-12-19T06:07:36.645Z,2.92
2018-12-19T06:08:36.608Z,2.97
2018-12-19T06:09:36.578Z,2.94
2018-12-19T06:10:36.545Z,3.02
2018-12-19T06:11:36.506Z,3.02
2018-12-19T06:12:36.472Z,2.98
2018-12-19T06:13:36.439Z,2.92
2018-12-19T06:14:37.737Z,3.01
2018-12-19T06:15:36.372Z,2.97
2018-12-19T06:16:36.337Z,2.97
2018-12-19T06:17:36.315Z,3.08
2018-12-19T06:18:36.270Z,2.97
2018-12-19T06:19:36.237Z,3.05
2018-12-19T06:20:36.203Z,3.01
2018-12-19T06:21:36.169Z,2.98
2018-12-19T06:22:36.136Z,3.01
2018-12-19T06:23:36.101Z,2.92
2018-12-19T06:24:36.079Z,2.98
2018-12-19T06:25:36.033Z,3.01
2018-12-19T06:26:36.002Z,3.01
2018-12-19T06:27:35.976Z,3.16
2018-12-19T06:28:35.935Z,3.07
2018-12-19T06:29:35.900Z,2.99
2018-12-19T06:30:35.867Z,3.05
2018-12-19T06:31:35.832Z,3.01
2018-12-19T06:32:35.798Z,3.17
2018-12-19T06:33:35.764Z,3.10
2018-12-19T06:34:35.730Z,3.10
2018-12-19T06:35:35.701Z,3.12
2018-12-19T06:36:35.662Z,3.12
2018-12-19T06:37:35.630Z,2.99
2018-12-19T06:38:35.597Z,3.04
2018-12-19T06:39:35.563Z,2.99
2018-12-19T06:40:35.529Z,2.99
2018-12-19T06:41:35.494Z,3.01
2018-12-19T06:42:35.460Z,3.02
2018-12-19T06:43:35.428Z,3.12
2018-12-19T06:44:35.394Z,3.04
2018-12-19T06:45:35.360Z,2.97
2018-12-19T06:46:35.328Z,2.99
2018-12-19T06:47:35.294Z,3.10
2018-12-19T06:48:35.267Z,2.99
2018-12-19T06:49:35.224Z,3.10
2018-12-19T06:50:35.209Z,2.99
2018-12-19T06:51:35.162Z,3.12
2018-12-19T06:52:35.123Z,2.92
2018-12-19T06:53:35.092Z,2.99
2018-12-19T06:54:35.057Z,3.10
2018-12-19T06:55:35.023Z,3.13
2018-12-19T06:56:34.990Z,3.13
2018-12-19T06:57:34.968Z,3.15
2018-12-19T06:58:34.923Z,3.12
2018-12-19T06:59:34.892Z,3.08
2018-12-19T07:00:34.855Z,3.08
2018-12-19T07:01:34.822Z,3.15
2018-12-19T07:02:34.789Z,3.16
2018-12-19T07:03:34.756Z,3.17
2018-12-19T07:04:34.722Z,3.15
2018-12-19T07:05:34.687Z,3.10
2018-12-19T07:06:34.655Z,3.10
2018-12-19T07:07:34.624Z,3.16
2018-12-19T07:08:34.589Z,3.12
2018-12-19T07:09:34.567Z,2.99
2018-12-19T07:10:39.129Z,3.07
2018-12-19T07:11:34.487Z,3.01
2018-12-19T07:12:34.453Z,3.01
2018-12-19T07:13:34.419Z,3.16
2018-12-19T07:14:34.385Z,3.07
2018-12-19T07:15:34.352Z,3.08
2018-12-19T07:16:34.323Z,3.12
2018-12-19T07:17:34.287Z,3.16
2018-12-19T07:18:34.252Z,3.10
2018-12-19T07:19:34.220Z,3.16
2018-12-19T07:20:34.184Z,3.08
2018-12-19T07:21:34.157Z,3.16
2018-12-19T07:22:34.121Z,3.16
2018-12-19T07:23:34.091Z,3.12
2018-12-19T07:24:34.050Z,3.12
2018-12-19T07:25:34.018Z,3.10
2018-12-19T07:26:33.984Z,3.12
2018-12-19T07:27:33.949Z,3.15
2018-12-19T07:28:33.915Z,3.13
2018-12-19T07:29:33.882Z,3.16
2018-12-19T07:30:33.850Z,3.16
2018-12-19T07:31:33.816Z,3.15
2018-12-19T07:32:33.783Z,3.07
2018-12-19T07:33:33.748Z,3.12
2018-12-19T07:34:33.713Z,3.16
2018-12-19T07:35:33.681Z,3.12
2018-12-19T07:36:33.646Z,3.05
2018-12-19T07:37:33.615Z,3.10
2018-12-19T07:38:33.579Z,3.13
2018-12-19T07:39:33.545Z,3.13
2018-12-19T07:40:33.512Z,3.08
2018-12-19T07:41:33.478Z,3.15
2018-12-19T07:42:33.444Z,3.12
2018-12-19T07:43:33.416Z,3.17
2018-12-19T07:44:33.379Z,3.20
2018-12-19T07:45:33.344Z,3.16
2018-12-19T07:46:33.317Z,3.20
2018-12-19T07:47:33.282Z,3.13
2018-12-19T07:48:33.245Z,3.16
2018-12-19T07:49:33.209Z,3.20
2018-12-19T07:50:33.179Z,3.13
2018-12-19T07:51:33.145Z,3.20
2018-12-19T07:52:33.109Z,3.13
2018-12-19T07:53:33.076Z,3.15
2018-12-19T07:54:33.044Z,3.22
2018-12-19T07:55:33.008Z,3.22
2018-12-19T07:56:32.980Z,3.28
2018-12-19T07:57:32.948Z,3.28
2018-12-19T07:58:32.907Z,3.19
2018-12-19T07:59:32.877Z,3.20
2018-12-19T08:00:32.842Z,3.17
2018-12-19T08:01:32.808Z,3.22
2018-12-19T08:02:32.775Z,3.17
2018-12-19T08:03:32.740Z,3.19
2018-12-19T08:04:32.708Z,3.19
2018-12-19T08:05:32.674Z,3.25
2018-12-19T08:06:32.642Z,3.25
2018-12-19T08:07:32.612Z,3.34
2018-12-19T08:08:32.576Z,3.31
2018-12-19T08:09:32.541Z,3.34
2018-12-19T08:10:32.508Z,3.31
2018-12-19T08:11:32.489Z,3.39
2018-12-19T08:12:35.972Z,3.42
2018-12-19T08:13:32.405Z,3.37
2018-12-19T08:14:32.376Z,3.33
2018-12-19T08:15:32.341Z,3.37
2018-12-19T08:16:32.331Z,3.34
2018-12-19T08:17:32.279Z,3.33
2018-12-19T08:18:32.241Z,3.41
2018-12-19T08:19:32.205Z,3.46
2018-12-19T08:20:32.177Z,3.35
2018-12-19T08:21:32.143Z,3.49
2018-12-19T08:22:32.111Z,3.34
2018-12-19T08:23:32.075Z,3.34
2018-12-19T08:24:32.039Z,3.46
2018-12-19T08:25:32.007Z,3.34
2018-12-19T08:26:31.973Z,3.35
2018-12-19T08:27:31.941Z,3.39
2018-12-19T08:28:31.904Z,3.42
2018-12-19T08:29:31.873Z,3.52
2018-12-19T08:30:31.844Z,3.52
2018-12-19T08:31:31.810Z,3.53
2018-12-19T08:32:31.776Z,3.57
2018-12-19T08:33:31.739Z,3.54
2018-12-19T08:34:31.706Z,3.62
2018-12-19T08:35:31.679Z,3.46
2018-12-19T08:36:31.639Z,3.57
2018-12-19T08:37:31.608Z,3.68
2018-12-19T08:38:31.575Z,3.70
2018-12-19T08:39:31.541Z,3.68
2018-12-19T08:40:31.507Z,3.63
2018-12-19T08:41:31.473Z,3.70
2018-12-19T08:42:31.444Z,3.77
2018-12-19T08:43:31.429Z,3.80
2018-12-19T08:44:31.373Z,3.77
2018-12-19T08:45:31.350Z,3.80
2018-12-19T08:46:31.310Z,3.77
2018-12-19T08:47:31.274Z,3.75
2018-12-19T08:48:31.242Z,3.80
2018-12-19T08:49:31.210Z,3.84
2018-12-19T08:50:31.176Z,3.89
2018-12-19T08:51:31.163Z,3.81
2018-12-19T08:52:31.123Z,3.75
2018-12-19T08:53:31.077Z,3.74
2018-12-19T08:54:31.045Z,3.77
2018-12-19T08:55:31.028Z,3.70
2018-12-19T08:56:30.979Z,3.72
2018-12-19T08:57:30.946Z,3.67
2018-12-19T08:58:30.916Z,3.67
2018-12-19T08:59:30.880Z,3.62
2018-12-19T09:00:30.851Z,3.70
2018-12-19T09:01:30.814Z,3.70
2018-12-19T09:02:30.783Z,3.56
2018-12-19T09:03:30.748Z,3.60
2018-12-19T09:04:30.721Z,3.60
2018-12-19T09:05:30.681Z,3.56
2018-12-19T09:06:30.651Z,3.62
2018-12-19T09:07:30.617Z,3.62
2018-12-19T09:08:30.581Z,3.62
2018-12-19T09:09:31.829Z,3.63
2018-12-19T09:10:30.517Z,3.59
2018-12-19T09:11:30.487Z,3.57
2018-12-19T09:12:30.450Z,3.57
2018-12-19T09:13:30.430Z,3.57
2018-12-19T09:14:30.384Z,3.62
2018-12-19T09:15:30.392Z,3.46
2018-12-19T09:16:30.327Z,3.44
2018-12-19T09:17:30.291Z,3.63
2018-12-19T09:18:30.254Z,3.54
2018-12-19T09:19:30.225Z,3.49
2018-12-19T09:20:30.185Z,3.52
2018-12-19T09:21:30.152Z,3.56
2018-12-19T09:22:30.119Z,3.50
2018-12-19T09:23:30.086Z,3.46
2018-12-19T09:24:30.083Z,3.45
2018-12-19T09:25:30.019Z,3.54
2018-12-19T09:26:29.991Z,3.45
2018-12-19T09:27:29.952Z,3.53
2018-12-19T09:28:29.918Z,3.46
2018-12-19T09:29:29.888Z,3.53
2018-12-19T09:30:29.853Z,3.63
2018-12-19T09:31:29.821Z,3.56
2018-12-19T09:32:29.786Z,3.57
2018-12-19T09:33:29.753Z,3.49
2018-12-19T09:34:29.719Z,3.54
2018-12-19T09:35:29.686Z,3.59
2018-12-19T09:36:29.653Z,3.64
2018-12-19T09:37:29.629Z,3.64
2018-12-19T09:38:29.588Z,3.59
2018-12-19T09:39:29.556Z,3.68
2018-12-19T09:40:29.525Z,3.75
2018-12-19T09:41:29.491Z,3.67
2018-12-19T09:42:29.460Z,3.70
2018-12-19T09:43:29.422Z,3.72
2018-12-19T09:44:29.387Z,3.84
2018-12-19T09:45:29.357Z,3.77
2018-12-19T09:46:29.324Z,3.78
2018-12-19T09:47:29.301Z,3.80
2018-12-19T09:48:29.263Z,3.78
2018-12-19T09:49:29.222Z,3.80
2018-12-19T09:50:29.192Z,3.75
2018-12-19T09:51:29.163Z,3.80
2018-12-19T09:52:29.123Z,3.78
2018-12-19T09:53:29.094Z,3.88
2018-12-19T09:54:29.075Z,3.92
2018-12-19T09:55:29.029Z,3.99
2018-12-19T09:56:28.995Z,3.92
2018-12-19T09:57:28.965Z,3.81
2018-12-19T09:58:28.926Z,3.84
2018-12-19T09:59:28.894Z,3.80
2018-12-19T10:00:28.862Z,3.80
2018-12-19T10:01:28.828Z,3.82
2018-12-19T10:02:28.795Z,3.75
2018-12-19T10:03:28.767Z,3.88
2018-12-19T10:04:28.730Z,3.82
2018-12-19T10:05:28.699Z,3.86
2018-12-19T10:06:28.663Z,3.75
2018-12-19T10:07:29.795Z,3.86
2018-12-19T10:08:28.614Z,3.98
2018-12-19T10:09:28.566Z,3.82
2018-12-19T10:10:28.534Z,3.92
2018-12-19T10:11:28.498Z,3.93
2018-12-19T10:12:28.467Z,4.06
2018-12-19T10:13:28.437Z,3.96
2018-12-19T10:14:28.400Z,3.98
2018-12-19T10:15:28.377Z,4.02
2018-12-19T10:16:28.333Z,3.96
2018-12-19T10:17:28.303Z,4.06
2018-12-19T10:18:28.272Z,4.10
2018-12-19T10:19:28.236Z,4.04
2018-12-19T10:20:28.203Z,4.04
2018-12-19T10:21:28.176Z,3.99
2018-12-19T10:22:28.137Z,4.10
2018-12-19T10:23:28.106Z,4.11
2018-12-19T10:24:28.070Z,4.04
2018-12-19T10:25:28.039Z,4.04
2018-12-19T10:26:28.008Z,4.00
2018-12-19T10:27:27.981Z,4.11
2018-12-19T10:28:27.941Z,4.14
2018-12-19T10:29:27.909Z,4.13
2018-12-19T10:30:27.875Z,4.11
2018-12-19T10:31:27.844Z,4.10
2018-12-19T10:32:27.816Z,4.08
2018-12-19T10:33:27.777Z,4.10
2018-12-19T10:34:27.750Z,4.14
2018-12-19T10:35:27.710Z,4.11
2018-12-19T10:36:27.683Z,4.28
2018-12-19T10:37:27.659Z,4.18
2018-12-19T10:38:27.613Z,4.17
2018-12-19T10:39:27.593Z,4.20
2018-12-19T10:40:27.546Z,4.21
2018-12-19T10:41:27.515Z,4.18
2018-12-19T10:42:27.481Z,4.18
2018-12-19T10:43:27.448Z,4.14
2018-12-19T10:44:27.414Z,4.26
2018-12-19T10:45:27.386Z,4.26
2018-12-19T10:46:27.356Z,4.21
2018-12-19T10:47:27.334Z,4.17
2018-12-19T10:48:27.293Z,4.25
2018-12-19T10:49:27.250Z,4.24
2018-12-19T10:50:27.218Z,4.14
2018-12-19T10:51:27.188Z,4.13
2018-12-19T10:52:27.152Z,4.10
2018-12-19T10:53:27.121Z,4.17
2018-12-19T10:54:27.098Z,4.18
2018-12-19T10:55:27.056Z,4.25
2018-12-19T10:56:27.021Z,4.16
2018-12-19T10:57:26.988Z,4.08
2018-12-19T10:58:26.954Z,4.17
2018-12-19T10:59:26.932Z,4.08
2018-12-19T11:00:27.140Z,4.26
2018-12-19T11:01:26.860Z,4.17
2018-12-19T11:02:27.439Z,4.11
2018-12-19T11:03:26.790Z,4.24
2018-12-19T11:04:26.821Z,4.26
2018-12-19T11:05:26.724Z,4.24
2018-12-19T11:06:26.695Z,4.08
2018-12-19T11:07:26.660Z,4.14
2018-12-19T11:08:26.629Z,4.16
2018-12-19T11:09:26.595Z,4.10
2018-12-19T11:10:26.561Z,4.16
2018-12-19T11:11:32.168Z,4.11
2018-12-19T11:12:26.495Z,4.16
2018-12-19T11:13:26.465Z,4.14
2018-12-19T11:14:26.432Z,4.13
2018-12-19T11:15:26.413Z,4.24
2018-12-19T11:16:26.366Z,4.20
2018-12-19T11:17:26.338Z,4.29
2018-12-19T11:18:26.306Z,4.13
2018-12-19T11:19:26.273Z,4.08
2018-12-19T11:20:26.238Z,4.14
2018-12-19T11:21:26.199Z,4.21
2018-12-19T11:22:26.178Z,4.24
2018-12-19T11:23:26.139Z,4.26
2018-12-19T11:24:26.099Z,4.24
2018-12-19T11:25:26.068Z,4.18
2018-12-19T11:26:26.035Z,4.20
2018-12-19T11:27:26.008Z,4.18
2018-12-19T11:28:25.970Z,4.24
2018-12-19T11:29:25.935Z,4.14
2018-12-19T11:30:25.905Z,4.29
2018-12-19T11:31:25.875Z,4.21
2018-12-19T11:32:25.837Z,4.28
2018-12-19T11:33:25.806Z,4.21
2018-12-19T11:34:25.772Z,4.21
2018-12-19T11:35:25.748Z,4.34
2018-12-19T11:36:25.706Z,4.28
2018-12-19T11:37:25.675Z,4.20
2018-12-19T11:38:25.643Z,4.14
2018-12-19T11:39:25.614Z,4.21
2018-12-19T11:40:25.574Z,4.20
2018-12-19T11:41:25.546Z,4.24
2018-12-19T11:42:25.508Z,4.21
2018-12-19T11:43:25.476Z,4.16
2018-12-19T11:44:25.469Z,4.17
2018-12-19T11:45:25.412Z,4.26
2018-12-19T11:46:25.379Z,4.24
2018-12-19T11:47:25.344Z,4.24
2018-12-19T11:48:25.322Z,4.20
2018-12-19T11:49:25.279Z,4.28
2018-12-19T11:50:25.247Z,4.24
2018-12-19T11:51:25.218Z,4.20
2018-12-19T11:52:25.181Z,4.21
2018-12-19T11:53:25.146Z,4.31
2018-12-19T11:54:25.113Z,4.29
2018-12-19T11:55:25.085Z,4.26
2018-12-19T11:56:25.050Z,4.24
2018-12-19T11:57:25.014Z,4.25
2018-12-19T11:58:24.980Z,4.34
2018-12-19T11:59:24.948Z,4.28
2018-12-19T12:00:24.913Z,4.29
2018-12-19T12:01:24.905Z,4.39
2018-12-19T12:02:24.861Z,4.42
2018-12-19T12:03:24.817Z,4.34
2018-12-19T12:04:24.785Z,4.36
2018-12-19T12:05:24.755Z,4.31
2018-12-19T12:06:24.716Z,4.35
2018-12-19T12:07:24.684Z,4.34
2018-12-19T12:08:24.652Z,4.29
2018-12-19T12:09:24.662Z,4.36
2018-12-19T12:10:24.589Z,4.28
2018-12-19T12:11:24.552Z,4.35
2018-12-19T12:12:24.521Z,4.31
2018-12-19T12:13:24.484Z,4.38
2018-12-19T12:14:24.453Z,4.28
2018-12-19T12:15:24.420Z,4.34
2018-12-19T12:16:24.390Z,4.24
2018-12-19T12:17:24.354Z,4.38
2018-12-19T12:18:24.321Z,4.25
2018-12-19T12:19:24.300Z,4.36
2018-12-19T12:20:24.258Z,4.36
2018-12-19T12:21:24.224Z,4.44
2018-12-19T12:22:24.190Z,4.38
2018-12-19T12:23:24.165Z,4.43
2018-12-19T12:24:24.126Z,4.42
2018-12-19T12:25:24.090Z,4.44
2018-12-19T12:26:24.057Z,4.42
2018-12-19T12:27:24.025Z,4.46
2018-12-19T12:28:23.995Z,4.42
2018-12-19T12:29:23.965Z,4.44
2018-12-19T12:30:23.925Z,4.44
2018-12-19T12:31:23.893Z,4.44
2018-12-19T12:32:23.859Z,4.39
2018-12-19T12:33:23.828Z,4.44
2018-12-19T12:34:23.792Z,4.47
2018-12-19T12:35:23.765Z,4.43
2018-12-19T12:36:23.728Z,4.50
2018-12-19T12:37:23.710Z,4.53
2018-12-19T12:38:23.661Z,4.54
2018-12-19T12:39:23.629Z,4.51
2018-12-19T12:40:23.595Z,4.57
2018-12-19T12:41:23.586Z,4.61
2018-12-19T12:42:23.537Z,4.56
2018-12-19T12:43:23.497Z,4.57
2018-12-19T12:44:23.462Z,4.56
2018-12-19T12:45:23.438Z,4.56
2018-12-19T12:46:23.412Z,4.56
2018-12-19T12:47:23.364Z,4.49
2018-12-19T12:48:23.337Z,4.49
2018-12-19T12:49:23.298Z,4.64
2018-12-19T12:50:23.268Z,4.61
2018-12-19T12:51:23.235Z,4.67
2018-12-19T12:52:23.199Z,4.56
2018-12-19T12:53:23.167Z,4.69
2018-12-19T12:54:23.136Z,4.64
2018-12-19T12:55:23.136Z,4.67
2018-12-19T12:56:23.069Z,4.71
2018-12-19T12:57:23.037Z,4.64
2018-12-19T12:58:23.002Z,4.65
2018-12-19T12:59:22.975Z,4.71
2018-12-19T13:00:22.936Z,4.68
2018-12-19T13:01:22.907Z,4.67
2018-12-19T13:02:22.872Z,4.77
2018-12-19T13:03:22.840Z,4.72
2018-12-19T13:04:22.807Z,4.69
2018-12-19T13:05:22.776Z,4.74
2018-12-19T13:06:22.740Z,4.72
2018-12-19T13:07:22.710Z,4.77
2018-12-19T13:08:22.675Z,4.75
2018-12-19T13:09:22.661Z,4.74
2018-12-19T13:10:22.610Z,4.77
2018-12-19T13:11:22.576Z,4.80
2018-12-19T13:12:22.548Z,4.77
2018-12-19T13:13:22.511Z,4.96
2018-12-19T13:14:22.480Z,4.87
2018-12-19T13:15:22.452Z,4.94
2018-12-19T13:16:22.418Z,4.91
2018-12-19T13:17:22.380Z,4.96
2018-12-19T13:18:22.363Z,4.87